South Hiram, Maine
Current Conditions -  °F | °C
As of 7:44 AM on Monday 24 Nov 2014 (Local Time) from KIZG Reporting Station
Heavy Rain Heavy Rain  
Wind Chill:   Ceiling: 800
Heat Index:   Visibility: 0.5mi
Dew Point:   Wind: 0mph
Humidity: 96%   Direction: NA
Pressure: 29.87"   Gusts: NA
Location:  43.8772°N, 70.8351°W
Report Text: KIZG 241244Z AUTO 00000KT 1/2SM +RA FG OVC008 02/01 A2987 RMK AO2 PRESFR P0019 T00170011
Loading
Personal Weather Stations






























Interactive Weather Map New forecast layout! Learn more

10-Day Weather Forecast

Advertisements
Track Severe Weather on mobile